Time;durP1;ratioP1;P1;durP2;ratioP2;P2;SDS_P1;SDS_P2;PMS_P1;PMS_P2;Temp;Humidity;BMP_temperature;BMP_pressure;BME280_temperature;BME280_humidity;BME280_pressure;Samples;Min_cycle;Max_cycle;Signal;HPM_P1;HPM_P2
2022/05/11 09:29:44;;;;;;;16.90;7.40;;;;;;;22.39;19.65;147763.34;1814774;79;22923;-64
2022/05/11 09:32:42;;;;;;;15.38;7.65;;;;;;;21.72;20.18;147598.84;1749838;82;21555;-61
2022/05/11 09:35:35;;;;;;;12.60;6.95;;;;;;;21.43;21.51;147528.05;1813451;79;20992;-62
2022/05/11 09:38:10;;;;;;;14.15;6.37;;;;;;;21.01;23.15;147424.34;1811129;79;21504;-61
2022/05/11 09:40:59;;;;;;;14.55;6.25;;;;;;;20.66;24.13;147335.81;1800917;78;21003;-61
2022/05/11 09:43:34;;;;;;;13.18;6.72;;;;;;;20.46;22.56;147287.78;1800587;80;21022;-62
2022/05/11 09:46:22;;;;;;;12.03;6.33;;;;;;;20.00;23.21;147174.08;1800065;78;21003;-61
2022/05/11 09:49:19;;;;;;;14.23;6.95;;;;;;;19.99;24.40;147170.28;1803355;78;20999;-63
2022/05/11 09:51:54;;;;;;;13.28;6.53;;;;;;;20.05;23.95;147186.72;1786991;78;21489;-61
2022/05/11 09:54:48;;;;;;;13.85;7.12;;;;;;;20.14;23.45;147209.42;1817541;78;20969;-62
2022/05/11 09:57:28;;;;;;;14.38;5.47;;;;;;;20.06;23.31;147189.22;1811925;78;21015;-61
2022/05/11 10:00:18;;;;;;;9.65;5.35;;;;;;;19.86;24.97;147138.69;1817603;79;21504;-63
2022/05/11 10:02:56;;;;;;;10.72;4.60;;;;;;;19.63;24.24;147083.06;1817542;79;21066;-62
2022/05/11 10:05:46;;;;;;;10.98;4.25;;;;;;;19.25;23.72;146989.63;1817641;79;21008;-74
2022/05/11 10:08:36;;;;;;;9.28;4.03;;;;;;;19.00;23.23;146926.50;1817427;79;21019;-62
2022/05/11 10:11:18;;;;;;;9.80;4.97;;;;;;;18.89;24.68;146898.75;1817468;79;21517;-63
2022/05/11 10:22:38;;;;;;;10.25;4.08;;;;;;;18.55;25.92;146815.42;1806950;79;21512;-65
2022/05/11 10:25:30;;;;;;;9.18;3.80;;;;;;;18.61;25.09;146831.80;1817115;78;21529;-64
2022/05/11 10:28:24;;;;;;;9.65;3.72;;;;;;;18.58;24.86;146822.98;1816297;78;21517;-61
2022/05/11 10:31:00;;;;;;;8.58;3.65;;;;;;;18.64;25.47;146839.36;1808699;79;21020;-63
2022/05/11 10:33:58;;;;;;;8.03;3.33;;;;;;;18.67;25.14;146845.67;1790348;79;21036;-67
2022/05/11 10:36:48;;;;;;;10.05;3.87;;;;;;;18.70;25.42;146851.98;1787592;79;21008;-67
2022/05/11 10:39:45;;;;;;;9.85;3.87;;;;;;;18.71;26.26;146855.78;1785207;79;21502;-67
2022/05/11 10:42:20;;;;;;;6.45;3.00;;;;;;;18.88;26.99;146897.50;1789090;79;21615;-67
2022/05/11 10:45:02;;;;;;;10.43;3.17;;;;;;;19.02;25.66;146931.56;1736265;79;21059;-67
2022/05/11 10:47:49;;;;;;;;;;;;;;;18.90;25.49;146901.25;1811411;79;21021;-66
2022/05/11 10:50:50;;;;;;;7.92;2.87;;;;;;;18.87;27.86;146896.20;1808686;79;20440;-67
2022/05/11 10:53:35;;;;;;;8.25;3.10;;;;;;;19.01;27.02;146929.06;1798675;79;21573;-67
2022/05/11 10:56:33;;;;;;;6.08;2.33;;;;;;;19.08;26.14;146946.69;1786266;79;21020;-66
2022/05/11 10:59:44;;;;;;;6.70;2.85;;;;;;;19.21;25.73;146978.25;1786026;80;21149;-66
2022/05/11 11:02:56;;;;;;;5.75;2.50;;;;;;;19.38;26.00;147019.94;1806171;79;21047;-67
2022/05/11 11:09:27;;;;;;;6.22;2.87;;;;;;;19.46;25.04;147040.12;1808612;79;21067;-67
2022/05/11 11:12:00;;;;;;;8.23;3.37;;;;;;;19.55;26.02;147062.88;1803338;79;20993;-72
2022/05/11 11:14:35;;;;;;;6.92;3.22;;;;;;;19.89;26.03;147146.27;1797376;79;21000;-70
2022/05/11 11:17:06;;;;;;;6.47;3.10;;;;;;;20.20;25.03;147222.06;1806463;79;21019;-67
2022/05/11 11:19:35;;;;;;;6.10;3.17;;;;;;;20.19;26.41;147219.55;1794794;80;21066;-70
2022/05/11 11:22:06;;;;;;;5.20;2.90;;;;;;;20.09;24.63;147195.53;1792109;80;20988;-69
2022/05/11 11:24:34;;;;;;;7.22;3.02;;;;;;;20.00;26.32;147174.08;1788973;79;21023;-71
2022/05/11 11:27:06;;;;;;;7.15;2.62;;;;;;;20.07;24.69;147191.72;1775819;80;21027;-67
2022/05/11 11:29:36;;;;;;;;;;;;;;;20.24;24.37;147232.19;1761541;80;20964;-71
2022/05/11 11:32:26;;;;;;;7.15;2.80;;;;;;;20.45;24.27;147285.22;1758531;81;20094;-68
2022/05/11 11:35:27;;;;;;;5.58;3.10;;;;;;;20.65;25.04;147333.31;1734188;82;21070;-70
2022/05/11 11:38:01;;;;;;;6.97;3.13;;;;;;;20.74;23.98;147357.34;1727395;83;21015;-69
2022/05/11 11:40:31;;;;;;;7.37;3.45;;;;;;;20.83;23.80;147378.80;1728265;83;21046;-63
2022/05/11 11:43:38;;;;;;;8.03;3.72;;;;;;;20.65;24.29;147333.31;1727867;82;21001;-66
2022/05/11 11:45:42;;;;;;;7.62;3.50;;;;;;;20.63;24.18;147328.25;1737690;82;21055;-65
2022/05/11 11:48:25;;;;;;;8.33;3.80;;;;;;;20.75;26.06;147358.59;1746805;81;21029;-57
2022/05/11 11:50:58;;;;;;;8.30;3.75;;;;;;;20.90;25.54;147396.50;1747604;81;21565;-57
2022/05/11 11:53:55;;;;;;;8.93;3.60;;;;;;;20.88;25.02;147391.44;1760299;81;21483;-58
2022/05/11 11:56:35;;;;;;;9.43;3.55;;;;;;;20.98;24.23;147416.72;1733678;81;21013;-64
2022/05/11 11:59:07;;;;;;;7.15;3.60;;;;;;;21.15;23.89;147458.45;1751073;81;21006;-60
2022/05/11 12:01:44;;;;;;;8.70;3.77;;;;;;;21.31;23.96;147497.64;1759932;81;21060;-58
2022/05/11 12:04:28;;;;;;;11.48;4.20;;;;;;;21.43;23.20;147528.05;1752074;81;21531;-58
2022/05/11 12:15:41;;;;;;;9.30;4.05;;;;;;;22.40;22.44;147767.16;1729818;81;21096;-61
2022/05/11 12:18:30;;;;;;;10.90;4.00;;;;;;;22.57;22.38;147807.63;1749464;81;21073;-60
2022/05/11 12:20:57;;;;;;;8.35;3.83;;;;;;;22.63;21.82;147822.84;1747924;81;21495;-58
2022/05/11 12:23:33;;;;;;;8.00;3.30;;;;;;;22.21;22.10;147720.38;1752223;81;20978;-61
2022/05/11 12:26:06;;;;;;;8.33;4.03;;;;;;;21.96;22.39;147657.06;1748253;81;20994;-61
2022/05/11 12:28:38;;;;;;;7.83;3.50;;;;;;;21.58;22.82;147564.72;1735950;81;21039;-64
2022/05/11 12:31:06;;;;;;;6.95;3.15;;;;;;;21.41;23.16;147522.97;1751406;81;20960;-61
2022/05/11 12:33:43;;;;;;;7.37;3.45;;;;;;;21.47;23.36;147536.88;1742848;81;21137;-63
2022/05/11 12:36:07;;;;;;;7.67;2.90;;;;;;;21.52;23.25;147548.27;1749934;81;21094;-59
2022/05/11 12:38:38;;;;;;;9.23;3.77;;;;;;;21.51;23.09;147545.75;1753021;81;21083;-59
2022/05/11 12:41:18;;;;;;;10.08;2.50;;;;;;;21.44;23.25;147529.30;1754807;81;21547;-62
2022/05/11 12:44:05;;;;;;;7.35;2.55;;;;;;;21.48;23.33;147538.17;1759341;81;21047;-63
2022/05/11 12:46:36;;;;;;;6.33;2.52;;;;;;;21.71;23.20;147596.34;1744179;81;21109;-61
2022/05/11 12:49:04;;;;;;;8.33;3.20;;;;;;;21.89;23.00;147641.86;1759807;81;21476;-60
2022/05/11 12:51:39;;;;;;;9.58;3.67;;;;;;;21.91;23.18;147644.41;1752322;81;21093;-61
2022/05/11 12:54:10;;;;;;;9.03;2.75;;;;;;;21.84;23.66;147627.95;1753310;81;21070;-60
2022/05/11 12:56:41;;;;;;;5.40;2.47;;;;;;;21.81;23.39;147621.63;1751348;82;21133;-59
2022/05/11 12:59:24;;;;;;;5.05;2.37;;;;;;;21.72;23.54;147598.84;1755564;81;21050;-61
2022/05/11 13:01:52;;;;;;;6.30;2.27;;;;;;;21.74;23.46;147603.92;1752361;81;21552;-63
2022/05/11 13:04:23;;;;;;;5.10;1.90;;;;;;;21.76;23.56;147607.73;1751940;81;21007;-61
2022/05/11 13:06:56;;;;;;;5.03;2.10;;;;;;;21.85;23.55;147631.77;1752727;81;21062;-59
2022/05/11 13:09:37;;;;;;;7.65;2.33;;;;;;;21.86;23.45;147634.28;1753791;81;21023;-59
2022/05/11 13:12:07;;;;;;;6.90;2.37;;;;;;;21.63;23.20;147576.11;1752814;81;20995;-59
2022/05/11 13:14:38;;;;;;;5.35;2.37;;;;;;;21.42;23.57;147525.53;1750354;82;21004;-61
2022/05/11 13:17:07;;;;;;;7.22;2.30;;;;;;;21.43;23.57;147528.05;1751426;81;21051;-61
2022/05/11 13:19:39;;;;;;;4.75;2.20;;;;;;;21.56;23.61;147558.41;1756291;81;21479;-61
2022/05/11 13:22:13;;;;;;;10.50;2.90;;;;;;;21.54;23.29;147553.33;1750269;81;21081;-59
2022/05/11 13:24:50;;;;;;;6.37;2.67;;;;;;;21.49;23.64;147540.69;1757087;81;21728;-59
2022/05/11 13:27:40;;;;;;;9.00;3.33;;;;;;;21.35;23.71;147507.78;1752775;81;20988;-61
2022/05/11 13:30:21;;;;;;;4.95;2.52;;;;;;;21.18;23.86;147466.03;1736700;82;21134;-58
2022/05/11 13:32:53;;;;;;;6.40;3.02;;;;;;;21.01;23.68;147423.03;1753716;81;20999;-61
2022/05/11 13:35:28;;;;;;;5.70;3.05;;;;;;;20.85;24.16;147383.88;1748451;80;21023;-61
2022/05/11 13:38:04;;;;;;;8.95;3.37;;;;;;;20.81;24.03;147373.73;1747660;82;21016;-61
2022/05/11 13:40:35;;;;;;;6.30;3.02;;;;;;;20.89;24.19;147394.00;1736959;83;21048;-61
2022/05/11 13:43:13;;;;;;;9.13;2.87;;;;;;;20.96;24.71;147411.70;1724778;81;21145;-60
2022/05/11 13:45:57;;;;;;;8.83;2.70;;;;;;;20.87;24.43;147388.94;1732573;81;21162;-60
2022/05/11 13:48:32;;;;;;;5.62;2.58;;;;;;;20.79;24.62;147368.72;1762023;81;21002;-61
2022/05/11 13:51:25;;;;;;;6.33;2.83;;;;;;;20.79;24.80;147369.97;1761761;81;21019;-62
2022/05/11 13:53:57;;;;;;;5.17;2.27;;;;;;;20.86;24.81;147386.37;1762840;80;21026;-60
2022/05/11 13:56:28;;;;;;;8.03;2.50;;;;;;;20.89;24.78;147394.00;1759159;80;21069;-61
2022/05/11 13:59:07;;;;;;;6.72;2.37;;;;;;;20.87;24.76;147388.94;1760688;80;21039;-61
2022/05/11 14:01:47;;;;;;;3.87;2.17;;;;;;;20.81;24.95;147375.05;1736170;83;21057;-62
2022/05/11 14:04:22;;;;;;;9.03;2.62;;;;;;;20.83;24.87;147378.80;1705998;83;21560;-61
2022/05/11 14:07:00;;;;;;;5.85;2.67;;;;;;;20.88;24.96;147391.44;1739730;81;21518;-60
2022/05/11 14:09:29;;;;;;;6.85;2.10;;;;;;;20.93;24.82;147404.08;1761811;81;21496;-62
2022/05/11 14:11:56;;;;;;;8.15;2.17;;;;;;;20.98;24.85;147416.72;1758092;81;21075;-62
2022/05/11 14:14:23;;;;;;;10.13;2.12;;;;;;;21.05;25.29;147431.92;1733431;83;21025;-61
2022/05/11 14:16:51;;;;;;;4.72;1.90;;;;;;;20.96;24.83;147410.41;1716628;81;21068;-62
2022/05/11 14:19:22;;;;;;;5.92;2.15;;;;;;;20.85;24.76;147383.88;1732306;81;21544;-60
2022/05/11 14:21:50;;;;;;;4.50;2.10;;;;;;;20.76;24.89;147361.09;1762060;81;21035;-60
2022/05/11 14:24:26;;;;;;;4.22;1.90;;;;;;;20.55;25.53;147310.55;1761763;81;21152;-60
2022/05/11 14:26:51;;;;;;;4.97;1.80;;;;;;;20.54;25.61;147308.05;1759268;81;21011;-60
2022/05/11 14:29:18;;;;;;;6.58;1.90;;;;;;;20.56;25.67;147311.84;1761732;81;21068;-61
2022/05/11 14:31:46;;;;;;;8.05;2.00;;;;;;;20.50;25.64;147297.88;1757066;81;21046;-60
2022/05/11 14:34:24;;;;;;;5.75;2.12;;;;;;;20.50;25.55;147296.61;1756004;81;21085;-60
2022/05/11 14:36:53;;;;;;;5.42;2.22;;;;;;;20.50;25.69;147296.61;1743417;82;21033;-65
2022/05/11 14:39:25;;;;;;;9.75;3.30;;;;;;;20.49;25.78;147295.36;1743278;82;21053;-62
2022/05/11 14:41:52;;;;;;;7.03;2.60;;;;;;;20.41;25.78;147275.16;1743605;82;21011;-59
2022/05/11 14:44:21;;;;;;;5.10;2.62;;;;;;;20.27;25.95;147239.75;1743315;82;21034;-59
2022/05/11 14:46:48;;;;;;;8.23;3.33;;;;;;;20.16;26.07;147214.48;1743531;82;21527;-59
2022/05/11 14:49:14;;;;;;;9.58;3.20;;;;;;;20.12;26.20;147204.41;1743288;82;21120;-61
2022/05/11 14:51:41;;;;;;;7.70;3.10;;;;;;;20.05;26.44;147186.72;1743008;81;21030;-59
2022/05/11 14:54:11;;;;;;;6.53;3.00;;;;;;;20.03;26.50;147181.66;1743250;81;21073;-61
2022/05/11 14:56:38;;;;;;;8.48;3.30;;;;;;;20.02;26.61;147177.84;1742963;81;21081;-59
2022/05/11 15:01:55;;;;;;;8.28;3.25;;;;;;;19.93;26.45;147156.39;1743346;81;21050;-61
2022/05/11 15:04:42;;;;;;;7.47;3.08;;;;;;;19.87;26.44;147141.20;1743563;81;21022;-60
2022/05/11 15:07:14;;;;;;;10.82;2.95;;;;;;;19.84;26.79;147134.89;1739215;81;21021;-63
2022/05/11 15:09:42;;;;;;;6.67;2.30;;;;;;;19.81;26.72;147126.06;1743374;81;21040;-60
2022/05/11 15:14:56;;;;;;;5.17;2.08;;;;;;;19.81;26.81;147126.06;1724491;82;21078;-59
2022/05/11 15:17:27;;;;;;;6.92;2.85;;;;;;;19.86;26.94;147138.69;1743283;82;21112;-62
2022/05/11 15:19:54;;;;;;;4.33;1.75;;;;;;;19.95;26.89;147161.45;1743504;82;20995;-60
2022/05/11 15:22:22;;;;;;;6.97;2.22;;;;;;;20.04;26.80;147182.91;1742639;81;21033;-60
2022/05/11 15:24:48;;;;;;;6.72;1.87;;;;;;;20.04;26.96;147184.16;1743269;82;21078;-61
2022/05/11 15:27:15;;;;;;;5.20;1.70;;;;;;;20.03;26.93;147181.66;1743275;82;21065;-60
2022/05/11 15:29:42;;;;;;;4.55;2.05;;;;;;;20.00;27.42;147174.08;1743204;82;21460;-59
2022/05/11 15:32:22;;;;;;;3.80;1.85;;;;;;;19.95;26.79;147161.45;1743476;82;21046;-61
2022/05/11 15:34:51;;;;;;;9.10;2.15;;;;;;;19.93;27.38;147156.39;1743239;81;21511;-60
2022/05/11 15:37:18;;;;;;;6.47;2.17;;;;;;;19.96;26.99;147163.97;1743441;82;21034;-60
2022/05/11 15:39:45;;;;;;;7.95;2.10;;;;;;;19.99;26.79;147170.28;1743216;81;21026;-58
2022/05/11 15:42:16;;;;;;;5.83;2.27;;;;;;;19.99;26.78;147170.28;1690017;83;21575;-58
2022/05/11 15:44:44;;;;;;;6.85;2.20;;;;;;;20.00;26.79;147174.08;1734528;82;21082;-61
2022/05/11 15:47:11;;;;;;;5.15;2.20;;;;;;;20.03;26.90;147180.41;1733732;82;21085;-60
2022/05/11 15:49:39;;;;;;;7.70;2.95;;;;;;;20.00;27.05;147174.08;1697610;84;21558;-61
2022/05/11 15:52:11;;;;;;;8.15;2.58;;;;;;;19.90;27.24;147150.06;1746269;81;21041;-60
2022/05/11 15:54:38;;;;;;;7.12;3.05;;;;;;;19.83;27.44;147131.12;1719866;83;21068;-59
2022/05/11 15:57:06;;;;;;;6.97;3.83;;;;;;;19.75;27.46;147112.19;1763553;81;21038;-61
2022/05/11 15:59:33;;;;;;;8.23;3.08;;;;;;;19.69;27.52;147098.30;1763795;81;21171;-60
2022/05/11 16:02:00;;;;;;;7.75;2.52;;;;;;;19.68;27.61;147095.75;1766324;81;21007;-61
2022/05/11 16:04:27;;;;;;;6.85;3.02;;;;;;;19.71;27.61;147103.31;1768654;80;21101;-59
2022/05/11 16:06:54;;;;;;;5.60;2.58;;;;;;;19.75;27.66;147112.19;1768610;81;21078;-61
2022/05/11 16:09:20;;;;;;;7.50;2.98;;;;;;;19.77;27.64;147115.94;1768982;80;21058;-62
2022/05/11 16:11:47;;;;;;;7.20;2.75;;;;;;;19.79;27.66;147121.00;1768725;80;21570;-59
2022/05/11 16:14:15;;;;;;;5.42;2.40;;;;;;;19.82;27.70;147128.56;1762454;81;21019;-62
2022/05/11 16:16:43;;;;;;;5.72;2.58;;;;;;;19.87;27.71;147141.20;1727328;82;21502;-62
2022/05/11 16:21:56;;;;;;;8.80;2.70;;;;;;;19.85;27.89;147136.19;1755661;81;21106;-58
2022/05/11 16:24:23;;;;;;;7.22;2.60;;;;;;;19.83;27.88;147132.37;1767634;81;21023;-61
2022/05/11 16:26:51;;;;;;;7.10;2.70;;;;;;;19.82;28.16;147129.88;1767270;81;21051;-59
2022/05/11 16:29:22;;;;;;;5.67;2.47;;;;;;;19.80;28.20;147123.56;1765935;81;20978;-60
2022/05/11 16:31:50;;;;;;;;;;;;;;;19.70;28.05;147099.56;1765643;80;20992;-59
2022/05/11 16:34:19;;;;;;;6.75;2.50;;;;;;;19.63;28.39;147083.06;1758074;81;20134;-61
2022/05/11 16:36:46;;;;;;;5.37;2.10;;;;;;;19.56;28.37;147065.38;1757943;81;21549;-59
2022/05/11 16:39:13;;;;;;;7.00;2.58;;;;;;;19.45;28.58;147038.88;1757662;81;20983;-61
2022/05/11 16:41:40;;;;;;;8.73;2.20;;;;;;;19.33;28.51;147008.56;1756590;81;21466;-60
2022/05/11 16:44:06;;;;;;;9.68;2.67;;;;;;;19.22;28.73;146982.06;1756415;82;21502;-60
2022/05/11 16:46:33;;;;;;;4.72;2.30;;;;;;;19.13;28.97;146959.31;1756143;82;21117;-61
2022/05/11 16:48:59;;;;;;;5.03;2.05;;;;;;;19.06;29.04;146941.69;1757953;80;22330;-60
2022/05/11 16:51:26;;;;;;;4.78;2.83;;;;;;;19.01;29.13;146929.06;1754781;80;21360;-60
2022/05/11 16:53:53;;;;;;;6.95;2.90;;;;;;;18.95;29.35;146913.88;1750453;82;21016;-60
2022/05/11 16:56:20;;;;;;;5.58;2.80;;;;;;;18.87;29.43;146894.95;1756256;81;21027;-60
2022/05/11 16:58:47;;;;;;;7.62;2.42;;;;;;;18.81;29.51;146881.08;1755647;81;21051;-59
2022/05/11 17:01:13;;;;;;;8.15;2.20;;;;;;;18.78;29.75;146872.25;1756348;82;21045;-59
2022/05/11 17:03:40;;;;;;;6.78;2.40;;;;;;;18.73;29.87;146859.59;1756516;81;21530;-59
2022/05/11 17:06:07;;;;;;;5.97;2.58;;;;;;;18.65;29.88;146840.66;1756218;81;21042;-58
2022/05/11 17:08:34;;;;;;;8.25;2.83;;;;;;;18.58;30.07;146824.23;1752642;82;21047;-60
2022/05/11 17:11:01;;;;;;;6.62;2.67;;;;;;;18.51;30.33;146805.31;1756266;81;21062;-61
2022/05/11 17:13:29;;;;;;;7.08;2.52;;;;;;;18.40;30.50;146778.81;1746726;82;20991;-58
2022/05/11 17:15:58;;;;;;;6.62;2.40;;;;;;;18.28;30.78;146749.78;1747706;81;21023;-58
2022/05/11 17:18:30;;;;;;;8.25;2.80;;;;;;;18.18;30.96;146724.56;1746965;82;21051;-59
2022/05/11 17:21:04;;;;;;;4.92;2.55;;;;;;;18.06;31.16;146694.27;1757330;81;21167;-61
2022/05/11 17:23:32;;;;;;;6.67;2.90;;;;;;;17.96;31.63;146670.30;1757303;81;21003;-59
2022/05/11 17:25:58;;;;;;;6.05;2.40;;;;;;;17.84;31.91;146641.31;1756431;80;20988;-61
2022/05/11 17:28:25;;;;;;;6.78;2.65;;;;;;;17.72;31.98;146612.25;1756829;80;21043;-61
2022/05/11 17:30:53;;;;;;;10.03;2.62;;;;;;;17.63;32.11;146588.27;1731589;83;21038;-58
2022/05/11 17:33:20;;;;;;;7.00;2.67;;;;;;;17.53;32.25;146565.61;1755660;82;21038;-58
2022/05/11 17:35:48;;;;;;;6.40;2.65;;;;;;;17.45;32.27;146544.14;1748751;81;21039;-60
2022/05/11 17:38:16;;;;;;;5.35;2.58;;;;;;;17.35;32.47;146520.17;1705606;83;21503;-59
2022/05/11 17:40:45;;;;;;;8.30;2.98;;;;;;;17.16;32.98;146472.30;1744046;82;21051;-61
2022/05/11 17:43:13;;;;;;;8.55;3.22;;;;;;;17.16;32.98;146472.30;1725745;83;21046;-58
2022/05/11 17:45:40;;;;;;;9.13;3.20;;;;;;;17.10;33.24;146459.69;1739325;82;21058;-60
2022/05/11 17:48:08;;;;;;;9.13;3.10;;;;;;;17.02;33.60;146438.23;1716717;83;21041;-59
2022/05/11 17:50:36;;;;;;;6.37;3.27;;;;;;;16.92;33.68;146414.33;1733338;82;21019;-59
2022/05/11 17:53:03;;;;;;;8.15;2.37;;;;;;;16.85;33.72;146396.67;1705415;82;21558;-60
2022/05/11 17:55:31;;;;;;;5.67;2.77;;;;;;;16.70;33.54;146361.31;1729399;82;21054;-60
2022/05/11 17:57:59;;;;;;;6.25;2.30;;;;;;;16.70;33.54;146361.31;1724804;83;21055;-59
2022/05/11 18:00:32;;;;;;;6.53;2.75;;;;;;;16.58;33.34;146331.06;1701241;84;21565;-61
2022/05/11 18:03:00;;;;;;;6.67;2.20;;;;;;;16.58;33.34;146331.06;1729924;83;21547;-61
2022/05/11 18:05:28;;;;;;;6.05;2.30;;;;;;;16.54;33.90;146319.72;1696622;83;21076;-62
2022/05/11 18:07:55;;;;;;;10.03;3.80;;;;;;;16.54;33.90;146319.72;1707905;83;21575;-61
2022/05/11 18:10:26;;;;;;;6.40;2.70;;;;;;;16.51;33.65;146313.42;1696981;83;21045;-60
2022/05/11 18:12:57;;;;;;;5.62;2.62;;;;;;;16.46;33.83;146300.81;1706395;83;21091;-58
2022/05/11 18:15:25;;;;;;;11.22;3.25;;;;;;;16.41;33.96;146288.22;1710478;82;21556;-59
2022/05/11 18:17:53;;;;;;;6.33;3.02;;;;;;;16.36;34.24;146275.63;1706831;83;21091;-62
2022/05/11 18:20:23;;;;;;;5.42;2.65;;;;;;;16.30;34.26;146260.53;1697321;84;21127;-61
2022/05/11 18:22:51;;;;;;;6.55;2.67;;;;;;;16.26;34.35;146251.72;1697417;84;21195;-60
2022/05/11 18:25:20;;;;;;;9.55;3.02;;;;;;;16.21;34.53;146240.38;1696316;84;21086;-61
2022/05/11 18:27:49;;;;;;;6.80;3.22;;;;;;;16.11;34.68;146215.19;1708372;84;21090;-64
2022/05/11 18:30:17;;;;;;;10.48;3.80;;;;;;;16.11;34.68;146215.19;1708468;84;21039;-61
2022/05/11 18:32:46;;;;;;;6.47;3.60;;;;;;;16.05;34.96;146201.34;1695619;84;21106;-60
2022/05/11 18:35:17;;;;;;;8.25;3.85;;;;;;;16.01;34.98;146191.25;1711491;83;21105;-63
2022/05/11 18:37:43;;;;;;;8.55;3.27;;;;;;;15.98;34.89;146182.44;1715298;83;21083;-64
2022/05/11 18:40:11;;;;;;;6.50;2.70;;;;;;;15.96;34.84;146177.41;1756569;82;21071;-65
2022/05/11 18:42:39;;;;;;;8.28;3.00;;;;;;;15.94;34.83;146172.34;1756348;82;21584;-63
2022/05/11 18:45:08;;;;;;;5.75;2.70;;;;;;;15.93;34.74;146171.09;1750617;81;21012;-63
2022/05/11 18:47:35;;;;;;;10.05;2.80;;;;;;;15.91;34.82;146166.06;1747152;82;21016;-63
2022/05/11 18:50:05;;;;;;;8.13;3.80;;;;;;;15.90;34.81;146162.25;1735426;83;21061;-65
2022/05/11 18:52:32;;;;;;;8.18;3.85;;;;;;;15.86;35.08;146152.22;1733704;81;21015;-65
2022/05/11 18:54:59;;;;;;;13.00;4.25;;;;;;;15.83;35.25;146147.16;1759046;80;21536;-65
2022/05/11 18:57:27;;;;;;;9.08;5.10;;;;;;;15.76;35.35;146129.53;1760651;81;20984;-66
2022/05/11 18:59:53;;;;;;;13.30;5.35;;;;;;;15.72;35.68;146119.48;1758089;81;21470;-64
2022/05/11 19:02:20;;;;;;;16.97;6.03;;;;;;;15.69;35.81;146111.89;1731602;83;21522;-66
2022/05/11 19:04:49;;;;;;;13.13;4.47;;;;;;;15.62;36.11;146094.20;1751082;81;21027;-62
2022/05/11 19:07:16;;;;;;;14.00;4.97;;;;;;;15.58;36.39;146084.16;1756662;82;21067;-65
2022/05/11 19:09:43;;;;;;;14.35;5.03;;;;;;;15.53;36.55;146071.56;1747311;82;21496;-67
2022/05/11 19:12:11;;;;;;;11.25;4.20;;;;;;;15.48;36.72;146060.22;1753362;81;21110;-66
2022/05/11 19:14:37;;;;;;;12.95;4.53;;;;;;;15.45;36.82;146051.44;1733119;83;21012;-66
2022/05/11 19:17:04;;;;;;;9.28;4.50;;;;;;;15.39;37.01;146038.84;1700967;84;21493;-65
2022/05/11 19:19:31;;;;;;;9.30;4.35;;;;;;;15.38;37.12;146036.30;1711705;83;21523;-63
2022/05/11 19:21:58;;;;;;;10.25;4.60;;;;;;;15.36;37.17;146030.00;1716092;83;21035;-63
2022/05/11 19:24:25;;;;;;;11.33;5.47;;;;;;;15.32;37.32;146021.20;1754147;80;21043;-70
2022/05/11 19:26:52;;;;;;;12.78;5.30;;;;;;;15.29;37.42;146012.38;1752005;82;21078;-68
2022/05/11 19:29:19;;;;;;;9.08;4.78;;;;;;;15.26;37.46;146004.83;1757492;82;21066;-67
2022/05/11 19:31:46;;;;;;;11.70;5.47;;;;;;;15.24;37.48;146001.08;1756022;81;21062;-64
2022/05/11 19:34:14;;;;;;;12.78;5.47;;;;;;;15.23;37.64;145997.28;1733381;82;21017;-58
2022/05/11 19:36:40;;;;;;;12.23;4.53;;;;;;;15.20;37.67;145990.98;1739569;81;21094;-68
2022/05/11 19:39:15;;;;;;;13.68;4.92;;;;;;;15.17;37.84;145983.44;1761686;81;21081;-61
2022/05/11 19:41:42;;;;;;;13.50;5.47;;;;;;;15.14;38.17;145975.91;1752989;81;21530;-67
2022/05/11 19:44:08;;;;;;;10.75;5.03;;;;;;;15.11;38.32;145969.61;1744480;81;21065;-64
2022/05/11 19:46:35;;;;;;;12.37;4.78;;;;;;;15.09;38.41;145963.31;1759785;81;21032;-68
2022/05/11 19:49:03;;;;;;;12.05;4.97;;;;;;;15.08;38.57;145960.77;1756163;81;21090;-58
2022/05/11 19:51:31;;;;;;;9.73;4.70;;;;;;;15.08;38.47;145960.77;1702861;83;21025;-69
2022/05/11 19:53:59;;;;;;;10.65;4.70;;;;;;;15.05;38.49;145954.47;1723091;82;21022;-65
2022/05/11 19:56:26;;;;;;;20.20;8.60;;;;;;;15.03;38.55;145949.44;1728227;82;21041;-67
2022/05/11 19:58:53;;;;;;;14.87;5.97;;;;;;;15.02;38.64;145946.94;1727646;82;21046;-68
2022/05/11 20:01:19;;;;;;;13.62;4.70;;;;;;;15.01;38.71;145943.14;1732516;82;21012;-67
2022/05/11 20:03:46;;;;;;;13.95;5.55;;;;;;;14.98;38.66;145936.84;1743956;82;21046;-65
2022/05/11 20:06:18;;;;;;;12.90;4.70;;;;;;;14.95;38.75;145930.56;1758286;81;21560;-65
2022/05/11 20:08:46;;;;;;;13.62;4.58;;;;;;;14.92;38.84;145923.02;1758093;81;21544;-68
2022/05/11 20:11:14;;;;;;;12.55;4.37;;;;;;;14.91;38.91;145920.52;1749624;82;21468;-70
2022/05/11 20:13:41;;;;;;;12.65;4.25;;;;;;;14.89;38.94;145915.47;1758153;82;21509;-72
2022/05/11 20:16:10;;;;;;;10.60;4.55;;;;;;;14.85;39.05;145905.39;1753745;82;21555;-58
2022/05/11 20:18:38;;;;;;;10.03;4.28;;;;;;;14.83;39.20;145900.34;1748692;80;21508;-65
2022/05/11 20:21:05;;;;;;;12.47;5.12;;;;;;;14.81;39.34;145895.34;1741772;82;21074;-68
2022/05/11 20:23:32;;;;;;;10.85;3.80;;;;;;;14.77;39.42;145885.27;1746105;82;21043;-66
2022/05/11 20:25:58;;;;;;;15.15;3.70;;;;;;;14.75;39.44;145880.22;1757691;82;21094;-66
2022/05/11 20:28:27;;;;;;;18.00;3.85;;;;;;;14.71;39.57;145871.44;1758182;82;21066;-75
2022/05/11 20:35:04;;;;;;;11.00;3.90;;;;;;;14.68;39.64;145862.59;1757912;82;21590;-62
2022/05/11 20:36:08;;;;;;;17.95;4.03;;;;;;;14.59;39.78;145839.97;1759083;81;21563;-70
2022/05/11 20:38:35;;;;;;;8.05;3.80;;;;;;;14.56;39.90;145832.44;1753317;81;21470;-65
2022/05/11 20:41:03;;;;;;;10.35;4.08;;;;;;;14.51;39.93;145822.31;1709218;82;21060;-72
2022/05/11 20:43:30;;;;;;;12.73;4.30;;;;;;;14.48;40.07;145814.77;1734870;81;21124;-59
2022/05/11 20:45:57;;;;;;;8.55;3.80;;;;;;;14.47;40.17;145812.22;1752949;81;21560;-63
2022/05/11 20:48:23;;;;;;;15.10;4.72;;;;;;;14.47;40.26;145810.97;1762063;81;21039;-60
2022/05/11 20:50:50;;;;;;;8.80;4.05;;;;;;;14.45;40.31;145807.22;1739654;81;20991;-61
2022/05/11 20:53:17;;;;;;;14.90;3.90;;;;;;;14.44;40.38;145804.69;1756881;81;21066;-61
2022/05/11 20:55:43;;;;;;;9.30;4.42;;;;;;;14.45;40.41;145807.22;1759661;81;21477;-59
2022/05/11 20:58:13;;;;;;;9.93;4.28;;;;;;;14.45;40.53;145805.94;1756982;81;21042;-60
2022/05/11 21:00:41;;;;;;;13.58;4.08;;;;;;;14.44;40.61;145803.44;1751311;81;21019;-71
2022/05/11 21:03:08;;;;;;;9.68;3.85;;;;;;;14.45;40.54;145805.94;1755743;80;21027;-63
2022/05/11 21:05:37;;;;;;;10.70;4.65;;;;;;;14.44;40.64;145804.69;1736813;82;21060;-58
2022/05/11 21:08:07;;;;;;;12.07;3.75;;;;;;;14.47;40.87;145812.22;1749869;82;21176;-56
2022/05/11 21:10:34;;;;;;;11.30;4.42;;;;;;;14.48;40.72;145813.52;1736630;83;21091;-57
2022/05/11 21:13:01;;;;;;;8.88;4.05;;;;;;;14.50;40.64;145819.81;1749876;81;21073;-56
2022/05/11 21:15:28;;;;;;;15.65;4.28;;;;;;;14.51;40.60;145822.31;1737266;82;21070;-56
2022/05/11 21:17:56;;;;;;;13.10;4.45;;;;;;;14.53;40.50;145827.39;1761973;81;21528;-56
2022/05/11 21:20:26;;;;;;;10.70;4.20;;;;;;;14.56;40.46;145832.44;1761687;81;21078;-56
2022/05/11 21:22:54;;;;;;;13.68;5.03;;;;;;;14.59;40.40;145839.97;1762330;81;21026;-56
2022/05/11 21:25:22;;;;;;;10.93;4.83;;;;;;;14.61;40.36;145845.02;1762215;81;21571;-56
2022/05/11 21:27:49;;;;;;;13.25;3.90;;;;;;;14.64;40.23;145853.81;1761983;81;21066;-56
2022/05/11 21:30:19;;;;;;;14.58;4.87;;;;;;;14.67;40.23;145860.09;1761242;81;21508;-56
2022/05/11 21:32:46;;;;;;;9.45;4.50;;;;;;;14.69;40.16;145865.14;1762340;81;21030;-56
2022/05/11 21:35:15;;;;;;;8.53;3.80;;;;;;;14.71;40.15;145870.19;1754597;81;21059;-56
2022/05/11 21:37:42;;;;;;;7.28;3.70;;;;;;;14.72;40.08;145873.94;1750728;82;21520;-56
2022/05/11 21:40:15;;;;;;;9.75;4.10;;;;;;;14.73;40.22;145875.19;1750883;82;21063;-56
2022/05/11 21:42:43;;;;;;;11.22;4.35;;;;;;;14.74;40.14;145877.72;1757400;81;21082;-56
2022/05/11 21:45:11;;;;;;;9.63;3.83;;;;;;;14.74;40.14;145877.72;1761314;81;21026;-56
2022/05/11 21:47:38;;;;;;;12.10;3.62;;;;;;;14.74;40.20;145877.72;1761850;81;21025;-56